Quinby, SC

2:12 AM EDT on April 27, 2015 (GMT -0400)
Forest Hills | | Change Station
CLOSE
Current Station
Personal Weather Station
Location: Florence, SC
Elevation: 115 ft
Nearby Weather Stations
Active Advisory: Flood Warning

Elev 115 ft 34.18 °N, 79.78 °W | Updated 7 minutes ago

Overcast
Overcast
52.3 °F
Feels Like 52.3 °F
N
1.7
Wind Variable Wind from ESE

Today
High -- | Low -- °F
--% Chance of Precip.
Yesterday
High -- | Low -- °F
Precip. -- in
6:33 AM 7:59 PM
Waxing Gibbous, 62% visible
Pressure 29.78 in
Visibility 10.0 miles
Clouds Mostly Cloudy 6500 ft
Overcast 8500 ft
Dew Point 50 °F
Humidity 91%
Rainfall 0.00 in
Snow Depth Not available.
UV 0 out of 12
Pollen 8.80 out of 12
Air Quality Not available.
Flu Activity Local Activity
METAR KFLO 270553Z AUTO 03003KT 10SM BKN065 OVC085 12/09 A2978 RMK AO2 SLP082 60000 T01170089 10133 20117 50003

More Conditions Fewer Conditions

Pressure 29.78 in
Visibility 10.0 miles
Clouds Mostly Cloudy 6500 ft
Overcast 8500 ft
Dew Point 50 °F
Humidity 91%
Rainfall 0.00 in
Snow Depth Not available.
UV 0 out of 12
Pollen 8.80 out of 12
Air Quality Not available.
Flu Activity Local Activity
METAR KFLO 270553Z AUTO 03003KT 10SM BKN065 OVC085 12/09 A2978 RMK AO2 SLP082 60000 T01170089 10133 20117 50003

More Conditions Fewer Conditions

10-Day Weather Forecast

Almanac

Astronomy

Apr. 27, 2015 Rise Set
Actual Time
Civil Twilight
Nautical Twilight
Astronomical Twilight
Moon
Length of Visible Light
Length of Day
Tomorrow will be .
, % of the Moon is Illuminated

Today's Extremes

State Highs State Lows

Community

WunderPhotos

Upload Photos

1,817,272 photos uploaded!

WunderBlogs® & News

Nearby

Air Quality

  Air Quality AQ Index Pollutant
Not available.

Snow Depth

Station Depth Elevation

Earthquake Activity

City Distance Mag. Time & Date
Minimum magnitude displayed is 2.5.

Coastal Water Temperatures

Place Temperature

Stations

Nearby Weather Stations

Station Location Temp. Windchill Dew Point Humidity Wind Precip. Elev Updated Type
                   
Flood Warning
Statement as of 8:31 PM EDT on April 26, 2015

... Flood Warning now in effect until late Thursday night...
the Flood Warning continues for
the great Pee Dee at Pee Dee
* until late Thursday night.
* At 8:00 PM Sunday the stage was 21.3 feet.
* Flood stage is 19.0 feet.
* Minor flooding is occurring and minor flooding is forecast.
* He river will continue to fall to below flood stage by Thursday
afternoon.
* At 20.0 feet... flood waters will affect swamplands and logging
interests. Flood waters will affect Timberland as far downstream as Yauhannah
two weeks after the crest passes Pee Dee. Logging equipment needs to be moved.


Lat... Lon 3424 7962 3424 7950 3400 7945 3385 7932
          3385 7944 3398 7957